Time;durP1;ratioP1;P1;durP2;ratioP2;P2;SDS_P1;SDS_P2;PMS_P1;PMS_P2;Temp;Humidity;BMP_temperature;BMP_pressure;BME280_temperature;BME280_humidity;BME280_pressure;Samples;Min_cycle;Max_cycle;Signal;HPM_P1;HPM_P2
2022/10/26 00:01:14;;;;;;;13.25;2.25;;;21.60;69.20;;;;;;5056892;28;20025;-75
2022/10/26 00:03:42;;;;;;;9.80;2.42;;;21.60;69.00;;;;;;5053236;28;20548;-75
2022/10/26 00:06:18;;;;;;;8.55;2.20;;;21.50;68.20;;;;;;5056277;28;20025;-74
2022/10/26 00:08:46;;;;;;;5.80;2.17;;;21.60;67.90;;;;;;5059923;28;20081;-74
2022/10/26 00:11:12;;;;;;;5.53;2.20;;;21.50;67.50;;;;;;5055588;28;20032;-74
2022/10/26 00:13:40;;;;;;;11.60;2.85;;;21.50;67.40;;;;;;5056800;28;20390;-74
2022/10/26 00:16:12;;;;;;;6.70;2.70;;;21.50;67.30;;;;;;5052871;28;20024;-74
2022/10/26 00:18:39;;;;;;;9.05;2.60;;;21.50;67.30;;;;;;5058632;28;20036;-74
2022/10/26 00:21:11;;;;;;;7.72;2.08;;;21.50;67.10;;;;;;5057536;28;20443;-74
2022/10/26 00:23:38;;;;;;;11.35;2.50;;;21.50;67.00;;;;;;5087267;28;20021;-74
2022/10/26 00:26:13;;;;;;;6.25;2.38;;;21.40;67.60;;;;;;5071429;28;20040;-74
2022/10/26 00:28:42;;;;;;;;;;;21.40;66.90;;;;;;5057672;28;20493;-74
2022/10/26 00:31:16;;;;;;;11.10;2.63;;;21.40;67.20;;;;;;5055397;28;20014;-75
2022/10/26 00:33:43;;;;;;;5.35;3.25;;;21.40;67.50;;;;;;5058295;28;20130;-74
2022/10/26 00:36:15;;;;;;;4.68;2.47;;;21.40;67.60;;;;;;5050880;28;20020;-76
2022/10/26 00:38:44;;;;;;;9.95;2.92;;;21.40;67.80;;;;;;5050438;28;20045;-75
2022/10/26 00:41:20;;;;;;;8.45;3.17;;;21.30;67.90;;;;;;5054940;28;20401;-74
2022/10/26 00:43:47;;;;;;;10.48;2.25;;;21.40;67.90;;;;;;5057329;28;20036;-74
2022/10/26 00:46:37;;;;;;;10.25;3.25;;;21.30;67.60;;;;;;5058211;28;20044;-74
2022/10/26 00:49:16;;;;;;;9.90;2.88;;;21.30;67.30;;;;;;5049820;28;20044;-75
2022/10/26 00:51:52;;;;;;;10.10;3.33;;;21.30;67.10;;;;;;5054006;28;20013;-74
2022/10/26 00:54:22;;;;;;;11.93;3.33;;;21.30;67.00;;;;;;5054545;28;20061;-73
2022/10/26 00:56:53;;;;;;;9.73;3.03;;;21.30;66.90;;;;;;5054423;28;20025;-73
2022/10/26 00:59:22;;;;;;;9.43;3.33;;;21.30;66.90;;;;;;5053006;28;20045;-73
2022/10/26 01:01:50;;;;;;;8.27;2.17;;;21.30;66.90;;;;;;5053319;28;20017;-74
2022/10/26 01:04:22;;;;;;;6.90;2.22;;;21.30;66.80;;;;;;5057891;28;20025;-74
2022/10/26 01:06:50;;;;;;;16.90;4.72;;;21.30;66.80;;;;;;5056385;28;20453;-73
2022/10/26 01:09:18;;;;;;;15.32;4.43;;;21.30;66.70;;;;;;5053909;28;20021;-72
2022/10/26 01:11:44;;;;;;;8.98;2.15;;;21.30;66.70;;;;;;5054777;28;20055;-73
2022/10/26 01:14:13;;;;;;;7.55;2.63;;;21.20;67.20;;;;;;5058058;28;20064;-73
2022/10/26 01:16:52;;;;;;;12.57;3.22;;;21.30;67.90;;;;;;5054506;28;20036;-73
2022/10/26 01:19:22;;;;;;;14.15;2.97;;;21.20;68.90;;;;;;5053840;28;20537;-73
2022/10/26 01:22:09;;;;;;;10.27;2.70;;;21.30;69.20;;;;;;5052554;28;20029;-73
2022/10/26 01:24:54;;;;;;;9.05;2.00;;;21.20;68.50;;;;;;5054767;28;20032;-73
2022/10/26 01:27:42;;;;;;;5.97;2.72;;;21.20;68.10;;;;;;5066906;28;20142;-73
2022/10/26 01:30:19;;;;;;;10.23;3.30;;;21.20;67.90;;;;;;5053541;28;20522;-75
2022/10/26 01:33:18;;;;;;;9.50;2.83;;;21.20;67.80;;;;;;5054624;28;20025;-75
2022/10/26 01:35:48;;;;;;;9.35;2.60;;;21.10;67.60;;;;;;5051221;28;20032;-73
2022/10/26 01:38:32;;;;;;;10.50;2.60;;;21.10;67.60;;;;;;5056659;28;20041;-74
2022/10/26 01:40:58;;;;;;;6.10;2.20;;;21.10;67.60;;;;;;5057158;28;20455;-73
2022/10/26 01:43:29;;;;;;;7.53;2.95;;;21.10;67.50;;;;;;5055426;28;20020;-74
2022/10/26 01:45:57;;;;;;;9.88;2.85;;;21.10;67.40;;;;;;5051878;28;20047;-73
2022/10/26 01:48:26;;;;;;;20.63;4.18;;;21.10;67.40;;;;;;5055826;28;20020;-73
2022/10/26 01:50:54;;;;;;;12.23;2.53;;;21.10;67.50;;;;;;5057474;28;20517;-72
2022/10/26 01:53:21;;;;;;;11.60;3.47;;;21.10;67.70;;;;;;5054888;28;20074;-74
2022/10/26 01:55:53;;;;;;;10.15;2.40;;;21.10;68.00;;;;;;5053014;28;20476;-73
2022/10/26 01:58:51;;;;;;;20.60;5.07;;;21.10;68.10;;;;;;5055120;28;20021;-73
2022/10/26 02:01:18;;;;;;;11.68;2.53;;;21.10;68.10;;;;;;5008413;28;20038;-73
2022/10/26 02:04:08;;;;;;;6.88;2.58;;;21.10;68.30;;;;;;5055118;28;20021;-73
2022/10/26 02:07:05;;;;;;;14.43;4.53;;;21.10;68.40;;;;;;5055900;28;20067;-74
2022/10/26 02:09:45;;;;;;;7.18;3.22;;;21.10;68.40;;;;;;5056670;28;20028;-74
2022/10/26 02:12:38;;;;;;;8.60;2.63;;;21.10;68.40;;;;;;5053228;28;20052;-74
2022/10/26 02:15:21;;;;;;;13.05;3.30;;;21.10;68.50;;;;;;5057327;28;20502;-75
2022/10/26 02:18:22;;;;;;;10.38;3.53;;;21.10;68.60;;;;;;5051380;28;20084;-72
2022/10/26 02:20:53;;;;;;;9.30;3.47;;;21.00;68.50;;;;;;5031446;28;20043;-72
2022/10/26 02:23:24;;;;;;;12.80;3.40;;;21.10;68.60;;;;;;5054310;28;20025;-72
2022/10/26 02:25:58;;;;;;;11.05;3.05;;;21.10;68.50;;;;;;5054967;28;20021;-72
2022/10/26 02:28:32;;;;;;;6.97;2.78;;;21.00;68.50;;;;;;5056429;28;20044;-72
2022/10/26 02:31:01;;;;;;;13.77;4.43;;;21.00;68.60;;;;;;5053729;28;20036;-72
2022/10/26 02:33:32;;;;;;;11.52;4.10;;;21.00;68.60;;;;;;5059387;28;20020;-73
2022/10/26 02:36:02;;;;;;;8.75;3.53;;;21.00;68.80;;;;;;5051639;28;20067;-74
2022/10/26 02:38:31;;;;;;;14.13;4.60;;;21.00;68.80;;;;;;5053880;28;20033;-73
2022/10/26 02:41:00;;;;;;;8.30;3.97;;;21.00;68.80;;;;;;5052139;28;20021;-73
2022/10/26 02:43:29;;;;;;;7.30;3.08;;;21.00;68.80;;;;;;5053430;28;20122;-74
2022/10/26 02:46:16;;;;;;;13.23;3.75;;;21.00;68.90;;;;;;5055520;28;20052;-74
2022/10/26 02:48:42;;;;;;;10.63;3.35;;;21.00;69.10;;;;;;5054808;28;20028;-74
2022/10/26 02:51:19;;;;;;;8.23;2.85;;;20.90;69.10;;;;;;5052428;28;20404;-74
2022/10/26 02:54:04;;;;;;;11.32;3.45;;;21.00;69.10;;;;;;5053234;28;20032;-74
2022/10/26 02:56:39;;;;;;;11.57;3.72;;;21.00;69.10;;;;;;5055141;28;20020;-74
2022/10/26 02:59:09;;;;;;;54.40;10.63;;;21.00;69.10;;;;;;5050455;28;20094;-74
2022/10/26 03:01:35;;;;;;;12.00;3.28;;;21.00;69.20;;;;;;5055335;28;20025;-74
2022/10/26 03:04:02;;;;;;;11.30;3.92;;;21.00;69.70;;;;;;5054993;28;20025;-74
2022/10/26 03:06:28;;;;;;;15.88;3.95;;;20.90;69.80;;;;;;5054665;28;20029;-74
2022/10/26 03:08:55;;;;;;;22.17;5.88;;;20.90;69.90;;;;;;5056712;28;20052;-74
2022/10/26 03:11:21;;;;;;;20.48;4.90;;;20.90;70.10;;;;;;5060297;28;20455;-74
2022/10/26 03:13:48;;;;;;;25.10;4.10;;;20.90;69.60;;;;;;5059168;28;20028;-74
2022/10/26 03:16:14;;;;;;;12.45;2.88;;;20.90;69.30;;;;;;5055442;28;20103;-74
2022/10/26 03:18:41;;;;;;;15.27;5.38;;;20.90;69.60;;;;;;5055536;28;20090;-74
2022/10/26 03:21:27;;;;;;;11.80;3.60;;;20.90;68.80;;;;;;5061742;28;20091;-73
2022/10/26 03:23:54;;;;;;;10.23;3.10;;;20.80;68.70;;;;;;5058314;28;20085;-74
2022/10/26 03:26:20;;;;;;;13.43;3.30;;;20.90;68.70;;;;;;5054219;28;20025;-73
2022/10/26 03:28:47;;;;;;;11.05;3.53;;;20.90;68.60;;;;;;5056355;28;20037;-73
2022/10/26 03:31:13;;;;;;;11.05;2.85;;;20.80;68.50;;;;;;5059284;28;20036;-73
2022/10/26 03:33:40;;;;;;;9.57;2.60;;;20.80;68.40;;;;;;5056233;28;20021;-73
2022/10/26 03:36:07;;;;;;;13.98;3.38;;;20.80;68.40;;;;;;5055834;28;20029;-73
2022/10/26 03:38:33;;;;;;;12.65;3.28;;;20.80;69.00;;;;;;5059873;28;20120;-74
2022/10/26 03:41:03;;;;;;;9.02;3.22;;;20.80;68.40;;;;;;5057174;28;20387;-73
2022/10/26 03:43:29;;;;;;;12.02;3.85;;;20.80;68.40;;;;;;5055635;28;20095;-73
2022/10/26 03:45:56;;;;;;;12.95;4.63;;;20.80;68.40;;;;;;5059967;28;20013;-74
2022/10/26 03:48:22;;;;;;;15.43;3.97;;;20.80;68.40;;;;;;5056420;28;20024;-72
2022/10/26 03:50:49;;;;;;;16.58;3.65;;;20.70;68.30;;;;;;5052683;28;20028;-74
2022/10/26 03:53:15;;;;;;;9.38;3.35;;;20.70;68.20;;;;;;5054317;28;20020;-71
2022/10/26 03:55:45;;;;;;;20.27;8.02;;;20.70;68.20;;;;;;5055985;28;20044;-75
2022/10/26 03:58:11;;;;;;;54.08;27.90;;;20.70;68.20;;;;;;5053953;28;20075;-72
2022/10/26 04:00:38;;;;;;;80.57;42.38;;;20.70;68.20;;;;;;5055695;28;20056;-71
2022/10/26 06:20:11;;;;;;;16.83;3.70;;;20.60;72.50;;;;;;5095409;27;20416;-66
2022/10/26 06:22:47;;;;;;;15.32;3.80;;;21.00;72.00;;;;;;5100059;28;20024;-68
2022/10/26 06:25:34;;;;;;;17.70;3.47;;;21.10;71.80;;;;;;5095742;28;20016;-70
2022/10/26 06:28:16;;;;;;;20.83;7.20;;;21.20;71.50;;;;;;5095982;28;20448;-68
2022/10/26 06:30:42;;;;;;;15.70;3.53;;;21.20;71.30;;;;;;5101721;28;20115;-67
2022/10/26 06:33:13;;;;;;;16.10;4.93;;;21.20;71.00;;;;;;5101418;28;20035;-72
2022/10/26 06:35:40;;;;;;;13.50;2.65;;;21.30;70.90;;;;;;5101065;28;20497;-71
2022/10/26 06:38:16;;;;;;;8.98;4.05;;;21.40;70.50;;;;;;5101562;28;20100;-69
2022/10/26 06:40:45;;;;;;;9.73;4.15;;;21.40;70.00;;;;;;5099392;28;20024;-68
2022/10/26 06:43:24;;;;;;;17.98;3.10;;;21.40;69.50;;;;;;5100953;28;20024;-68
2022/10/26 06:46:13;;;;;;;14.45;4.22;;;21.50;69.30;;;;;;5099975;28;20159;-71
2022/10/26 06:49:12;;;;;;;10.82;2.50;;;21.60;69.10;;;;;;5097434;28;20025;-71
2022/10/26 06:51:47;;;;;;;10.95;3.15;;;21.60;68.50;;;;;;5099695;28;20494;-67
2022/10/26 06:54:48;;;;;;;15.15;3.17;;;21.70;68.30;;;;;;5103838;28;20501;-69
2022/10/26 06:57:16;;;;;;;8.23;2.45;;;21.70;68.10;;;;;;5095275;28;20063;-73
2022/10/26 06:59:53;;;;;;;8.40;2.88;;;21.70;67.90;;;;;;5097208;28;20538;-67
2022/10/26 07:02:19;;;;;;;22.40;5.22;;;21.80;67.70;;;;;;5096770;28;20019;-71
2022/10/26 07:04:46;;;;;;;17.30;3.55;;;21.80;67.60;;;;;;5102707;28;20506;-67
2022/10/26 07:07:21;;;;;;;23.05;5.50;;;21.90;68.00;;;;;;5102387;28;20032;-73
2022/10/26 07:09:48;;;;;;;19.08;4.03;;;21.90;69.00;;;;;;5101985;28;20024;-73
2022/10/26 07:12:15;;;;;;;35.22;4.15;;;22.00;69.20;;;;;;5100519;28;20020;-73
2022/10/26 07:14:41;;;;;;;12.10;2.47;;;22.00;68.60;;;;;;5094994;28;20021;-71
2022/10/26 07:17:08;;;;;;;21.48;4.30;;;22.10;67.90;;;;;;5103729;28;20030;-72
2022/10/26 07:19:39;;;;;;;11.43;3.30;;;22.10;67.40;;;;;;5086437;28;20051;-72
2022/10/26 07:22:05;;;;;;;14.93;3.63;;;22.10;68.10;;;;;;5082111;28;20469;-68
2022/10/26 07:24:32;;;;;;;12.98;3.40;;;22.10;68.10;;;;;;5081844;28;20020;-68
2022/10/26 07:26:58;;;;;;;12.88;4.10;;;22.20;67.70;;;;;;5087191;28;20021;-71
2022/10/26 07:29:26;;;;;;;11.23;3.35;;;22.20;67.20;;;;;;5082478;28;20033;-70
2022/10/26 07:31:53;;;;;;;13.13;4.53;;;22.30;67.30;;;;;;5082559;28;20028;-67
2022/10/26 07:34:19;;;;;;;16.50;3.25;;;22.40;67.10;;;;;;5084296;28;20413;-71
2022/10/26 07:36:46;;;;;;;9.63;3.03;;;22.40;66.50;;;;;;5087943;28;20111;-67
2022/10/26 07:39:12;;;;;;;9.65;2.60;;;22.40;66.80;;;;;;5084308;28;20036;-68
2022/10/26 07:41:39;;;;;;;9.80;2.63;;;22.40;65.80;;;;;;5085626;28;20364;-69
2022/10/26 07:44:05;;;;;;;11.70;2.80;;;22.50;65.50;;;;;;5073956;28;20020;-67
2022/10/26 07:46:31;;;;;;;14.80;3.05;;;22.50;64.80;;;;;;5086824;28;20024;-68
2022/10/26 07:48:58;;;;;;;16.55;2.92;;;22.60;64.50;;;;;;5080833;28;20032;-70
2022/10/26 07:51:24;;;;;;;10.65;3.45;;;22.60;64.20;;;;;;5084700;28;20032;-73
2022/10/26 07:53:51;;;;;;;14.05;2.33;;;22.70;64.40;;;;;;5085780;28;20526;-67
2022/10/26 07:56:18;;;;;;;18.45;3.40;;;22.70;64.50;;;;;;5077686;28;20116;-73
2022/10/26 07:58:44;;;;;;;9.85;3.03;;;22.80;64.40;;;;;;5083285;28;20029;-73
2022/10/26 08:01:53;;;;;;;27.13;4.80;;;22.90;63.90;;;;;;5083293;28;20036;-72
2022/10/26 08:04:59;;;;;;;13.77;1.83;;;23.00;64.50;;;;;;5083270;28;20102;-68
2022/10/26 08:08:05;;;;;;;9.30;2.22;;;23.00;63.40;;;;;;5079898;28;20482;-71
2022/10/26 08:11:11;;;;;;;8.52;1.85;;;23.10;62.60;;;;;;5088676;28;20035;-73
2022/10/26 08:14:17;;;;;;;9.35;2.50;;;23.10;61.60;;;;;;5079402;28;20071;-69
2022/10/26 08:17:23;;;;;;;5.85;1.73;;;23.20;61.00;;;;;;5084636;28;20103;-71
2022/10/26 08:20:29;;;;;;;13.05;3.28;;;23.30;60.70;;;;;;5086782;28;20051;-72
2022/10/26 08:23:15;;;;;;;;;;;23.30;59.70;;;;;;5082234;28;20029;-67
2022/10/26 08:26:21;;;;;;;8.93;2.15;;;23.40;59.30;;;;;;5080562;28;20373;-72
2022/10/26 08:29:27;;;;;;;6.57;1.73;;;23.40;59.10;;;;;;5082597;28;20490;-71
2022/10/26 08:32:33;;;;;;;4.60;1.75;;;23.50;58.90;;;;;;5080595;28;20061;-73
2022/10/26 08:35:39;;;;;;;11.05;2.47;;;23.60;58.80;;;;;;5082442;28;20020;-72
2022/10/26 08:38:45;;;;;;;6.07;1.45;;;23.70;58.50;;;;;;5081048;28;20028;-72
2022/10/26 08:41:34;;;;;;;4.63;1.85;;;23.80;59.10;;;;;;5075161;28;20081;-73
2022/10/26 08:44:21;;;;;;;14.45;3.33;;;23.80;59.10;;;;;;5078369;28;20021;-68
2022/10/26 08:47:27;;;;;;;7.65;2.17;;;23.80;58.90;;;;;;5081132;28;20043;-69
2022/10/26 08:50:22;;;;;;;9.10;2.58;;;23.90;59.10;;;;;;5083873;28;20028;-72
2022/10/26 08:53:31;;;;;;;9.57;3.03;;;23.90;58.90;;;;;;5076323;28;20476;-71
2022/10/26 08:56:37;;;;;;;7.25;1.90;;;24.00;58.80;;;;;;5077975;28;20039;-72
2022/10/26 08:59:41;;;;;;;8.45;2.60;;;24.10;58.50;;;;;;5079852;28;20032;-70
2022/10/26 09:02:53;;;;;;;6.28;2.28;;;24.10;58.20;;;;;;5084838;28;20020;-70
2022/10/26 09:06:15;;;;;;;7.30;2.17;;;24.20;57.80;;;;;;5082023;28;20024;-73
2022/10/26 09:09:13;;;;;;;9.40;2.75;;;24.20;57.30;;;;;;5084641;28;20041;-72
2022/10/26 09:12:18;;;;;;;6.45;2.05;;;24.30;56.90;;;;;;5076696;28;20056;-73
2022/10/26 09:15:00;;;;;;;9.85;2.60;;;24.40;56.10;;;;;;5073533;28;20112;-74
2022/10/26 09:17:44;;;;;;;16.92;2.42;;;24.50;55.30;;;;;;5081194;28;20107;-73
2022/10/26 09:20:29;;;;;;;7.40;1.83;;;24.50;54.70;;;;;;5083156;28;20020;-74
2022/10/26 09:23:50;;;;;;;6.13;2.15;;;24.60;54.50;;;;;;5074805;28;20035;-70
2022/10/26 09:27:12;;;;;;;7.30;2.15;;;24.60;55.50;;;;;;5066139;28;20119;-69
2022/10/26 09:30:18;;;;;;;6.82;2.08;;;24.70;55.80;;;;;;5065389;28;20538;-71
2022/10/26 09:33:07;;;;;;;;;;;24.90;55.90;;;;;;5075842;28;20020;-73
2022/10/26 09:35:56;;;;;;;7.03;2.35;;;24.90;55.50;;;;;;5082041;28;19912;-73
2022/10/26 09:38:48;;;;;;;5.22;1.75;;;25.00;55.70;;;;;;5086540;28;20024;-71
2022/10/26 09:41:27;;;;;;;5.45;2.08;;;25.00;55.60;;;;;;5073195;28;20032;-72
2022/10/26 09:44:24;;;;;;;5.75;2.08;;;25.10;55.30;;;;;;5079978;28;20433;-73
2022/10/26 09:47:54;;;;;;;5.10;2.10;;;25.20;55.00;;;;;;5084447;28;20020;-67
2022/10/26 09:51:03;;;;;;;6.32;1.83;;;25.30;55.10;;;;;;5078452;28;20040;-74
2022/10/26 09:53:38;;;;;;;5.05;1.17;;;25.30;54.50;;;;;;5075741;28;20051;-69
2022/10/26 09:56:08;;;;;;;7.07;2.03;;;25.40;54.00;;;;;;5067542;28;20020;-69
2022/10/26 09:58:46;;;;;;;5.88;2.00;;;25.50;53.30;;;;;;5082280;28;20012;-73
2022/10/26 10:01:34;;;;;;;6.55;1.83;;;25.50;53.20;;;;;;5080095;28;20032;-72
2022/10/26 10:04:12;;;;;;;5.50;1.63;;;25.60;52.90;;;;;;5074726;28;20020;-67
2022/10/26 10:06:44;;;;;;;4.35;1.77;;;25.70;53.10;;;;;;5078849;28;20115;-73
2022/10/26 10:09:16;;;;;;;6.63;2.00;;;25.80;53.00;;;;;;5082778;28;20832;-73
2022/10/26 10:11:44;;;;;;;7.65;1.80;;;25.90;52.70;;;;;;5077211;28;20024;-68
2022/10/26 10:14:17;;;;;;;5.40;1.80;;;25.90;52.70;;;;;;5073553;28;20013;-72
2022/10/26 10:17:03;;;;;;;5.15;1.95;;;26.00;52.90;;;;;;5086593;28;20085;-69
2022/10/26 10:19:34;;;;;;;5.90;1.35;;;26.10;53.00;;;;;;5077475;28;20040;-72
2022/10/26 10:22:24;;;;;;;5.10;2.28;;;26.10;52.60;;;;;;5074823;28;20025;-73
2022/10/26 10:24:53;;;;;;;7.00;2.10;;;26.10;52.10;;;;;;5088223;28;20013;-70
2022/10/26 10:27:20;;;;;;;6.40;2.30;;;26.20;52.00;;;;;;5075943;28;20036;-71
2022/10/26 10:29:57;;;;;;;8.23;2.22;;;26.30;51.80;;;;;;5082749;28;20033;-71
2022/10/26 10:32:30;;;;;;;5.22;1.30;;;26.30;51.20;;;;;;5083306;28;20045;-73
2022/10/26 10:34:59;;;;;;;7.45;1.50;;;26.40;51.30;;;;;;5069588;28;20647;-74
2022/10/26 10:37:43;;;;;;;5.22;2.10;;;26.40;50.70;;;;;;5073092;28;20019;-74
2022/10/26 10:40:20;;;;;;;5.30;1.75;;;26.50;50.70;;;;;;5082337;28;20070;-73
2022/10/26 10:42:47;;;;;;;7.32;2.00;;;26.50;50.80;;;;;;5083192;28;20043;-72
2022/10/26 10:45:47;;;;;;;5.18;1.58;;;26.50;50.00;;;;;;5081817;28;20368;-71
2022/10/26 10:48:21;;;;;;;4.90;2.58;;;26.60;50.50;;;;;;5067873;28;20044;-71
2022/10/26 10:50:53;;;;;;;10.63;1.88;;;26.70;50.30;;;;;;5079562;28;20055;-73
2022/10/26 10:53:45;;;;;;;3.97;2.10;;;26.80;50.30;;;;;;5082012;28;20028;-67
2022/10/26 10:56:26;;;;;;;5.20;2.30;;;26.80;49.90;;;;;;5085987;28;20531;-72
2022/10/26 10:58:59;;;;;;;7.07;2.25;;;26.90;49.70;;;;;;5082669;28;20024;-71
2022/10/26 11:01:34;;;;;;;6.68;2.05;;;27.00;49.70;;;;;;5083487;28;20463;-72
2022/10/26 11:04:37;;;;;;;6.43;2.03;;;27.00;49.80;;;;;;5084071;28;20027;-71
2022/10/26 11:07:06;;;;;;;10.70;3.15;;;27.10;49.90;;;;;;5059077;28;20398;-69
2022/10/26 11:09:38;;;;;;;7.13;3.70;;;27.10;50.00;;;;;;5076422;28;20016;-68
2022/10/26 11:12:17;;;;;;;11.27;5.95;;;27.20;50.20;;;;;;5081979;28;20123;-73
2022/10/26 11:15:04;;;;;;;13.65;6.72;;;27.20;50.40;;;;;;5084621;28;20055;-70
2022/10/26 11:17:41;;;;;;;12.52;6.30;;;27.30;50.50;;;;;;5086004;28;20463;-72
2022/10/26 11:20:21;;;;;;;16.90;5.55;;;27.30;50.50;;;;;;5075707;28;20060;-72
2022/10/26 11:23:00;;;;;;;9.77;4.40;;;27.30;50.40;;;;;;5087683;28;20086;-68
2022/10/26 11:25:45;;;;;;;8.18;4.15;;;27.40;50.50;;;;;;5086848;28;20487;-71
2022/10/26 11:28:11;;;;;;;;;;;27.40;50.70;;;;;;5079026;28;20041;-71
2022/10/26 11:30:46;;;;;;;9.98;3.70;;;27.50;50.90;;;;;;5087261;28;19921;-70
2022/10/26 11:33:21;;;;;;;7.63;3.42;;;27.50;50.70;;;;;;5071668;28;20020;-69
2022/10/26 11:36:05;;;;;;;12.40;4.25;;;27.50;50.30;;;;;;5087969;28;20028;-70
2022/10/26 11:38:49;;;;;;;7.10;3.17;;;27.60;49.70;;;;;;5083223;28;20051;-69
2022/10/26 11:41:25;;;;;;;14.32;5.38;;;27.70;49.50;;;;;;5081417;28;20087;-69
2022/10/26 11:44:18;;;;;;;10.45;4.65;;;27.60;49.90;;;;;;5088008;28;20028;-71
2022/10/26 11:46:55;;;;;;;12.15;3.60;;;27.70;49.70;;;;;;5082923;28;20490;-70
2022/10/26 11:49:48;;;;;;;6.68;3.30;;;27.70;48.90;;;;;;5081031;28;20039;-73
2022/10/26 11:52:23;;;;;;;6.13;2.78;;;27.70;49.30;;;;;;5052929;28;20390;-74
2022/10/26 11:54:54;;;;;;;5.70;3.10;;;27.80;49.80;;;;;;5084574;28;20378;-68
2022/10/26 11:57:23;;;;;;;6.18;3.35;;;27.80;49.70;;;;;;5089338;28;20028;-72
2022/10/26 12:00:01;;;;;;;6.22;3.00;;;27.90;49.50;;;;;;5085034;28;20466;-73
2022/10/26 12:02:28;;;;;;;6.50;2.33;;;27.90;49.50;;;;;;5082062;28;20059;-68
2022/10/26 14:22:07;;;;;;;17.42;5.50;;;27.40;53.70;;;;;;5038939;27;20446;-72
2022/10/26 14:24:40;;;;;;;20.67;6.30;;;27.60;55.90;;;;;;5029579;28;20025;-73
2022/10/26 14:27:24;;;;;;;13.95;4.38;;;27.60;55.60;;;;;;5025302;28;20566;-74
2022/10/26 14:29:52;;;;;;;23.40;6.78;;;27.50;56.20;;;;;;5027822;28;20022;-74
2022/10/26 14:32:33;;;;;;;18.40;6.03;;;27.50;56.00;;;;;;5026293;28;20021;-75
2022/10/26 14:35:02;;;;;;;27.08;16.13;;;27.50;56.00;;;;;;5026680;28;20388;-75
2022/10/26 14:37:34;;;;;;;66.53;54.55;;;27.50;56.00;;;;;;5028895;28;20464;-76
2022/10/26 14:40:01;;;;;;;40.25;35.35;;;27.50;56.20;;;;;;5024187;28;20036;-72
2022/10/26 14:42:49;;;;;;;45.80;35.97;;;27.50;56.30;;;;;;5030588;28;20379;-72
2022/10/26 14:45:29;;;;;;;102.50;90.15;;;27.40;56.30;;;;;;5024120;28;20033;-72
2022/10/26 14:47:55;;;;;;;75.85;63.38;;;27.40;56.20;;;;;;5024656;28;20030;-74
2022/10/26 14:50:26;;;;;;;83.40;69.95;;;27.50;56.00;;;;;;5025266;28;20392;-74
2022/10/26 14:52:55;;;;;;;170.07;150.32;;;27.40;55.70;;;;;;5029150;28;20006;-71
2022/10/26 14:55:23;;;;;;;132.50;105.05;;;27.40;55.80;;;;;;5027890;28;20018;-72
2022/10/26 14:57:53;;;;;;;69.13;49.85;;;27.40;56.10;;;;;;5023758;28;20107;-71
2022/10/26 15:00:22;;;;;;;46.75;21.88;;;27.40;56.10;;;;;;5025368;28;20476;-72
2022/10/26 15:02:55;;;;;;;26.33;12.95;;;27.40;56.00;;;;;;5025772;28;20025;-70
2022/10/26 15:05:28;;;;;;;27.33;9.25;;;27.30;55.90;;;;;;5020742;28;20488;-71
2022/10/26 15:07:55;;;;;;;20.75;7.85;;;27.30;56.00;;;;;;5025657;28;20030;-70
2022/10/26 15:10:40;;;;;;;18.73;7.43;;;27.30;56.10;;;;;;5028826;28;20030;-71
2022/10/26 15:13:24;;;;;;;21.38;6.72;;;27.30;56.20;;;;;;5024466;28;20408;-71
2022/10/26 15:15:52;;;;;;;15.98;6.00;;;27.30;56.20;;;;;;5024231;28;20037;-74
2022/10/26 15:18:38;;;;;;;29.02;10.68;;;27.30;56.20;;;;;;5025947;28;20095;-73
2022/10/26 15:21:27;;;;;;;27.05;11.15;;;27.20;56.20;;;;;;5020190;28;20050;-73
2022/10/26 15:23:54;;;;;;;17.25;8.38;;;27.20;56.40;;;;;;5025339;28;20034;-72
2022/10/26 15:26:21;;;;;;;14.68;5.80;;;27.10;56.30;;;;;;5011304;28;20022;-71
2022/10/26 15:28:48;;;;;;;17.95;6.28;;;27.10;56.50;;;;;;5010838;28;20384;-72
2022/10/26 15:31:34;;;;;;;16.95;6.05;;;27.10;56.50;;;;;;5013052;28;20037;-72
2022/10/26 15:34:00;;;;;;;13.20;4.78;;;27.10;56.60;;;;;;5011724;28;20022;-72
2022/10/26 15:36:28;;;;;;;16.60;5.88;;;27.00;56.60;;;;;;5011614;28;20029;-73
2022/10/26 15:38:54;;;;;;;20.38;6.47;;;27.00;56.70;;;;;;5013986;28;20092;-73
2022/10/26 15:41:31;;;;;;;18.77;5.88;;;26.90;56.70;;;;;;5008516;28;20018;-72
2022/10/26 15:44:04;;;;;;;16.13;5.68;;;26.90;57.40;;;;;;5009915;28;20561;-73
2022/10/26 15:46:35;;;;;;;21.02;5.68;;;26.80;56.90;;;;;;5008829;28;20021;-69
2022/10/26 15:49:24;;;;;;;18.88;5.30;;;26.80;57.10;;;;;;5008076;28;20037;-75
2022/10/26 15:51:51;;;;;;;19.23;6.45;;;26.80;57.20;;;;;;5008494;28;20018;-74
2022/10/26 15:54:18;;;;;;;21.05;8.57;;;26.70;57.30;;;;;;5006010;28;20022;-75
2022/10/26 15:56:47;;;;;;;21.13;6.32;;;26.70;57.30;;;;;;5007823;28;20480;-74
2022/10/26 15:59:18;;;;;;;13.57;5.38;;;26.70;57.30;;;;;;5006359;28;20857;-72
2022/10/26 16:01:45;;;;;;;26.88;8.85;;;26.70;57.50;;;;;;5007571;28;20028;-75
2022/10/26 16:04:13;;;;;;;22.08;8.52;;;26.70;57.60;;;;;;5007697;28;20022;-76
2022/10/26 16:06:41;;;;;;;23.73;8.07;;;26.70;57.60;;;;;;5007061;28;20096;-73
2022/10/26 16:09:18;;;;;;;27.40;7.75;;;26.60;57.70;;;;;;5008696;28;20415;-73
2022/10/26 16:11:44;;;;;;;17.48;6.53;;;26.60;57.80;;;;;;5007176;28;20034;-73
2022/10/26 16:14:50;;;;;;;16.00;6.38;;;26.50;58.10;;;;;;5007388;28;20045;-75
2022/10/26 16:17:57;;;;;;;18.98;6.15;;;26.50;58.40;;;;;;5006276;28;20029;-76
2022/10/26 16:20:34;;;;;;;18.52;5.60;;;26.40;58.40;;;;;;5007828;28;20053;-75
2022/10/26 16:23:05;;;;;;;18.63;6.45;;;26.40;58.70;;;;;;5009949;28;20092;-80
2022/10/26 16:25:34;;;;;;;20.15;8.18;;;26.30;58.70;;;;;;5006212;28;20117;-78
2022/10/26 16:28:01;;;;;;;22.38;9.95;;;26.30;59.40;;;;;;5009333;28;20022;-72
2022/10/26 16:31:07;;;;;;;23.17;7.78;;;26.20;58.80;;;;;;5005497;28;20502;-74
2022/10/26 16:34:13;;;;;;;21.13;5.93;;;26.20;58.80;;;;;;5005013;28;20071;-76
2022/10/26 16:37:26;;;;;;;24.10;5.97;;;26.10;58.90;;;;;;5008117;28;20025;-78
2022/10/26 16:40:32;;;;;;;31.58;7.75;;;26.10;59.10;;;;;;5005820;28;20044;-78
2022/10/26 16:43:38;;;;;;;29.65;7.03;;;26.10;59.20;;;;;;5005671;28;20016;-74
2022/10/26 16:46:07;;;;;;;22.50;5.90;;;26.00;59.30;;;;;;5007679;28;20022;-76
2022/10/26 16:48:35;;;;;;;25.25;5.97;;;25.90;59.30;;;;;;5006052;28;20630;-75
2022/10/26 16:51:44;;;;;;;21.35;6.50;;;25.90;59.40;;;;;;4999715;28;20038;-75
2022/10/26 16:54:50;;;;;;;17.10;6.10;;;25.90;59.60;;;;;;5008928;28;20034;-74
2022/10/26 16:57:56;;;;;;;15.95;4.72;;;25.90;59.60;;;;;;5006711;28;20117;-75
2022/10/26 17:00:23;;;;;;;;;;;25.80;59.70;;;;;;5005856;28;20068;-73
2022/10/26 17:02:49;;;;;;;18.02;5.53;;;25.80;59.80;;;;;;5009824;28;19952;-73
2022/10/26 17:05:16;;;;;;;23.60;6.78;;;25.70;59.80;;;;;;5008446;28;20014;-74
2022/10/26 17:07:42;;;;;;;33.83;8.68;;;25.70;60.00;;;;;;5009430;28;20445;-75
2022/10/26 17:10:09;;;;;;;24.50;11.32;;;25.60;60.40;;;;;;5006517;28;20026;-76
2022/10/26 17:12:35;;;;;;;15.15;8.35;;;25.50;60.60;;;;;;5005649;28;20113;-74
2022/10/26 17:15:02;;;;;;;19.65;8.45;;;25.50;60.60;;;;;;5008857;28;20412;-77
2022/10/26 17:17:28;;;;;;;22.42;6.88;;;25.40;60.60;;;;;;5008284;28;20096;-76
2022/10/26 17:19:55;;;;;;;18.10;6.43;;;25.40;60.80;;;;;;5009582;28;20029;-76
2022/10/26 17:22:21;;;;;;;11.30;5.45;;;25.30;60.80;;;;;;5007044;28;20053;-76
2022/10/26 17:24:48;;;;;;;15.38;6.57;;;25.30;60.90;;;;;;5008581;28;20037;-77
2022/10/26 17:27:15;;;;;;;28.60;13.80;;;25.30;61.20;;;;;;5006221;28;20037;-80
2022/10/26 17:29:45;;;;;;;27.13;13.00;;;25.30;61.60;;;;;;5009446;28;20180;-77
2022/10/26 17:32:14;;;;;;;18.15;7.70;;;25.20;61.60;;;;;;5008048;28;20057;-76
2022/10/26 17:34:40;;;;;;;16.42;5.75;;;25.20;61.60;;;;;;5008795;28;20026;-80
2022/10/26 17:37:06;;;;;;;14.73;4.70;;;25.20;61.50;;;;;;5009247;28;20037;-83
2022/10/26 17:39:54;;;;;;;17.17;4.55;;;25.20;61.60;;;;;;5010803;28;20069;-84
2022/10/26 17:42:20;;;;;;;19.35;5.18;;;25.10;61.40;;;;;;5005062;28;20042;-80
2022/10/26 17:44:52;;;;;;;14.20;5.15;;;25.10;61.50;;;;;;5007548;28;20050;-79
2022/10/26 17:47:18;;;;;;;22.33;5.22;;;25.10;61.60;;;;;;5008004;28;20648;-79
2022/10/26 17:49:45;;;;;;;15.45;5.30;;;25.00;61.40;;;;;;5006911;28;20052;-79
2022/10/26 17:52:11;;;;;;;16.65;5.65;;;25.00;61.40;;;;;;5009432;28;20506;-81
2022/10/26 17:54:40;;;;;;;13.70;5.93;;;25.00;61.50;;;;;;5007923;28;20030;-85
2022/10/26 17:57:09;;;;;;;16.23;5.05;;;25.00;61.50;;;;;;5008771;28;20041;-80
2022/10/26 17:59:36;;;;;;;16.48;6.43;;;24.90;61.50;;;;;;5008035;28;20064;-76
2022/10/26 18:02:02;;;;;;;14.35;5.43;;;24.90;61.50;;;;;;5006395;28;20026;-75
2022/10/26 18:04:29;;;;;;;18.58;6.47;;;24.90;61.60;;;;;;5008434;28;20502;-75
2022/10/26 18:06:55;;;;;;;24.45;12.32;;;24.90;61.70;;;;;;5005821;28;20527;-73